Time;durP1;ratioP1;P1;durP2;ratioP2;P2;SDS_P1;SDS_P2;PMS_P1;PMS_P2;Temp;Humidity;BMP_temperature;BMP_pressure;BME280_temperature;BME280_humidity;BME280_pressure;Samples;Min_cycle;Max_cycle;Signal;HPM_P1;HPM_P2
2021/08/31 00:02:10;;;;;;;;;;;;;;;;;;5033501;28;20391;-68
2021/08/31 00:04:55;;;;;;;;;;;;;;;;;;5028252;28;20304;-69
2021/08/31 00:07:39;;;;;;;;;;;;;;;;;;5028051;28;20292;-68
2021/08/31 00:10:23;;;;;;;;;;;;;;;;;;5032156;28;20396;-68
2021/08/31 00:13:07;;;;;;;;;;;;;;;;;;5031506;28;19924;-68
2021/08/31 00:15:51;;;;;;;;;;;;;;;;;;5031795;28;19924;-68
2021/08/31 00:18:36;;;;;;;;;;;;;;;;;;5036977;28;19921;-69
2021/08/31 00:21:20;;;;;;;;;;;;;;;;;;5028378;28;19924;-69
2021/08/31 00:24:04;;;;;;;;;;;;;;;;;;5029439;28;20304;-68
2021/08/31 00:26:48;;;;;;;;;;;;;;;;;;5029089;28;19920;-68
2021/08/31 00:29:33;;;;;;;;;;;;;;;;;;5027703;28;19920;-68
2021/08/31 00:32:17;;;;;;;;;;;;;;;;;;5027151;28;20280;-68
2021/08/31 00:35:02;;;;;;;;;;;;;;;;;;5028683;28;19936;-68
2021/08/31 00:37:46;;;;;;;;;;;;;;;;;;5028798;28;19928;-68
2021/08/31 00:40:30;;;;;;;;;;;;;;;;;;5027420;28;19928;-69
2021/08/31 00:43:14;;;;;;;;;;;;;;;;;;5029195;28;19921;-69
2021/08/31 00:45:58;;;;;;;;;;;;;;;;;;5026990;28;19920;-69
2021/08/31 00:48:43;;;;;;;;;;;;;;;;;;5024312;28;20035;-69
2021/08/31 00:51:27;;;;;;;;;;;;;;;;;;5039973;28;19925;-68
2021/08/31 00:54:11;;;;;;;;;;;;;;;;;;5027660;28;19937;-68
2021/08/31 00:56:55;;;;;;;;;;;;;;;;;;5029497;28;19920;-68
2021/08/31 00:59:39;;;;;;;;;;;;;;;;;;5026139;28;19924;-68
2021/08/31 01:02:23;;;;;;;;;;;;;;;;;;5032108;28;19920;-68
2021/08/31 01:05:09;;;;;;;;;;;;;;;;;;5025852;28;20419;-69
2021/08/31 01:07:53;;;;;;;;;;;;;;;;;;5025875;28;19924;-68
2021/08/31 01:10:37;;;;;;;;;;;;;;;;;;5030455;28;19920;-68
2021/08/31 01:13:21;;;;;;;;;;;;;;;;;;5031445;28;19936;-68
2021/08/31 01:16:05;;;;;;;;;;;;;;;;;;5025453;28;19920;-68
2021/08/31 01:18:49;;;;;;;;;;;;;;;;;;5030178;28;19920;-69
2021/08/31 01:21:33;;;;;;;;;;;;;;;;;;5030848;28;19920;-68
2021/08/31 01:24:18;;;;;;;;;;;;;;;;;;5028354;28;19920;-69
2021/08/31 01:27:02;;;;;;;;;;;;;;;;;;5030190;28;19920;-69
2021/08/31 01:29:48;;;;;;;;;;;;;;;;;;5029435;28;20426;-68
2021/08/31 01:32:31;;;;;;;;;;;;;;;;;;5028154;28;19924;-68
2021/08/31 01:35:16;;;;;;;;;;;;;;;;;;5025410;28;19921;-68
2021/08/31 01:38:00;;;;;;;;;;;;;;;;;;5027448;28;19921;-68
2021/08/31 01:40:45;;;;;;;;;;;;;;;;;;5028551;28;19921;-68
2021/08/31 01:43:29;;;;;;;;;;;;;;;;;;5024576;28;19928;-68
2021/08/31 01:46:13;;;;;;;;;;;;;;;;;;5030564;28;20395;-68
2021/08/31 01:48:57;;;;;;;;;;;;;;;;;;5023902;28;19937;-69
2021/08/31 01:51:42;;;;;;;;;;;;;;;;;;5024057;28;19924;-68
2021/08/31 01:54:26;;;;;;;;;;;;;;;;;;5025850;28;19928;-68
2021/08/31 01:57:10;;;;;;;;;;;;;;;;;;5028469;28;19926;-68
2021/08/31 01:59:54;;;;;;;;;;;;;;;;;;5024910;28;19920;-68
2021/08/31 02:02:38;;;;;;;;;;;;;;;;;;5030536;28;19932;-68
2021/08/31 02:05:23;;;;;;;;;;;;;;;;;;5023752;28;19936;-68
2021/08/31 02:08:07;;;;;;;;;;;;;;;;;;5028341;28;19925;-68
2021/08/31 02:10:51;;;;;;;;;;;;;;;;;;5029907;28;19920;-68
2021/08/31 02:13:35;;;;;;;;;;;;;;;;;;5027142;28;20226;-68
2021/08/31 02:16:19;;;;;;;;;;;;;;;;;;5026721;28;20450;-68
2021/08/31 02:19:06;;;;;;;;;;;;;;;;;;5030249;28;19920;-69
2021/08/31 02:21:51;;;;;;;;;;;;;;;;;;5025351;28;19920;-68
2021/08/31 02:24:35;;;;;;;;;;;;;;;;;;5026272;28;20388;-68
2021/08/31 02:27:19;;;;;;;;;;;;;;;;;;5024751;28;19920;-68
2021/08/31 02:30:03;;;;;;;;;;;;;;;;;;5028084;28;19921;-68
2021/08/31 02:32:48;;;;;;;;;;;;;;;;;;5026671;28;19924;-69
2021/08/31 02:35:32;;;;;;;;;;;;;;;;;;5026284;28;19921;-68
2021/08/31 02:38:17;;;;;;;;;;;;;;;;;;5029193;28;19920;-68
2021/08/31 02:41:02;;;;;;;;;;;;;;;;;;5027286;28;20324;-68
2021/08/31 02:43:47;;;;;;;;;;;;;;;;;;5023824;28;20295;-68
2021/08/31 02:46:31;;;;;;;;;;;;;;;;;;5028133;28;19920;-68
2021/08/31 02:49:15;;;;;;;;;;;;;;;;;;5026666;28;19936;-68
2021/08/31 02:52:00;;;;;;;;;;;;;;;;;;5026010;28;19928;-68
2021/08/31 02:54:44;;;;;;;;;;;;;;;;;;5024425;28;20426;-68
2021/08/31 02:57:28;;;;;;;;;;;;;;;;;;5028439;28;19921;-68
2021/08/31 03:00:18;;;;;;;;;;;;;;;;;;5021566;28;19928;-69
2021/08/31 03:03:03;;;;;;;;;;;;;;;;;;5027337;28;20391;-68
2021/08/31 03:05:47;;;;;;;;;;;;;;;;;;5026210;28;19928;-68
2021/08/31 03:08:35;;;;;;;;;;;;;;;;;;5029994;22;19940;-77
2021/08/31 03:11:19;;;;;;;;;;;;;;;;;;5031809;28;19928;-77
2021/08/31 03:14:04;;;;;;;;;;;;;;;;;;5031493;28;19920;-77
2021/08/31 03:16:48;;;;;;;;;;;;;;;;;;5031687;28;20400;-77
2021/08/31 03:19:33;;;;;;;;;;;;;;;;;;5032067;28;20517;-77
2021/08/31 03:22:17;;;;;;;;;;;;;;;;;;5037604;28;19921;-77
2021/08/31 03:25:01;;;;;;;;;;;;;;;;;;5029859;28;19928;-77
2021/08/31 03:27:45;;;;;;;;;;;;;;;;;;5036635;28;19920;-77
2021/08/31 03:30:29;;;;;;;;;;;;;;;;;;5037212;28;19924;-77
2021/08/31 03:33:13;;;;;;;;;;;;;;;;;;5035717;28;20392;-77
2021/08/31 03:35:57;;;;;;;;;;;;;;;;;;5039778;28;19921;-78
2021/08/31 03:38:41;;;;;;;;;;;;;;;;;;5037617;28;19920;-78
2021/08/31 03:41:26;;;;;;;;;;;;;;;;;;5034653;28;19924;-77
2021/08/31 03:44:10;;;;;;;;;;;;;;;;;;5030553;28;19921;-77
2021/08/31 03:46:54;;;;;;;;;;;;;;;;;;5038694;28;19928;-77
2021/08/31 03:49:38;;;;;;;;;;;;;;;;;;5031469;28;19920;-77
2021/08/31 03:52:22;;;;;;;;;;;;;;;;;;5033830;28;20408;-78
2021/08/31 03:55:07;;;;;;;;;;;;;;;;;;5036207;28;20352;-77
2021/08/31 03:57:51;;;;;;;;;;;;;;;;;;5037324;28;20408;-77
2021/08/31 04:00:35;;;;;;;;;;;;;;;;;;5035260;28;19920;-78
2021/08/31 04:03:19;;;;;;;;;;;;;;;;;;5039737;28;19936;-77
2021/08/31 04:06:03;;;;;;;;;;;;;;;;;;5033731;28;19920;-77
2021/08/31 04:08:48;;;;;;;;;;;;;;;;;;5034729;28;19924;-77
2021/08/31 04:11:32;;;;;;;;;;;;;;;;;;5037189;28;19924;-77
2021/08/31 04:14:16;;;;;;;;;;;;;;;;;;5039515;28;19920;-77
2021/08/31 04:17:00;;;;;;;;;;;;;;;;;;5036816;28;19920;-77
2021/08/31 04:19:45;;;;;;;;;;;;;;;;;;5032202;28;19920;-77
2021/08/31 04:22:29;;;;;;;;;;;;;;;;;;5036158;28;19924;-77
2021/08/31 04:25:13;;;;;;;;;;;;;;;;;;5034526;28;19932;-77
2021/08/31 04:27:57;;;;;;;;;;;;;;;;;;5032685;28;19928;-77
2021/08/31 04:30:42;;;;;;;;;;;;;;;;;;5031762;28;19924;-77
2021/08/31 04:33:26;;;;;;;;;;;;;;;;;;5031187;28;19940;-77
2021/08/31 04:36:11;;;;;;;;;;;;;;;;;;5032180;28;19936;-77
2021/08/31 04:38:55;;;;;;;;;;;;;;;;;;5033918;28;20409;-77
2021/08/31 04:41:40;;;;;;;;;;;;;;;;;;5036465;28;20309;-77
2021/08/31 04:44:24;;;;;;;;;;;;;;;;;;5034966;28;19920;-77
2021/08/31 04:47:08;;;;;;;;;;;;;;;;;;5036964;28;19920;-78
2021/08/31 04:49:53;;;;;;;;;;;;;;;;;;5032672;28;20433;-78
2021/08/31 04:52:37;;;;;;;;;;;;;;;;;;5034342;28;19932;-78
2021/08/31 04:55:21;;;;;;;;;;;;;;;;;;5040084;28;20301;-78
2021/08/31 04:58:05;;;;;;;;;;;;;;;;;;5031350;28;19928;-78
2021/08/31 05:00:49;;;;;;;;;;;;;;;;;;5036704;28;19928;-79
2021/08/31 05:03:34;;;;;;;;;;;;;;;;;;5038173;28;19920;-78
2021/08/31 05:06:18;;;;;;;;;;;;;;;;;;5039419;28;19924;-78
2021/08/31 05:09:02;;;;;;;;;;;;;;;;;;5035240;28;19939;-79
2021/08/31 05:11:47;;;;;;;;;;;;;;;;;;5034146;28;19924;-77
2021/08/31 05:14:31;;;;;;;;;;;;;;;;;;5037075;28;19920;-78
2021/08/31 05:17:15;;;;;;;;;;;;;;;;;;5035219;28;19920;-78
2021/08/31 05:19:59;;;;;;;;;;;;;;;;;;5033383;28;19924;-78
2021/08/31 05:22:43;;;;;;;;;;;;;;;;;;5035395;28;19921;-77
2021/08/31 05:25:28;;;;;;;;;;;;;;;;;;5025911;28;19935;-78
2021/08/31 05:28:12;;;;;;;;;;;;;;;;;;5027163;28;19921;-78
2021/08/31 05:30:56;;;;;;;;;;;;;;;;;;5035859;28;19920;-77
2021/08/31 05:33:41;;;;;;;;;;;;;;;;;;5029974;28;19996;-77
2021/08/31 05:36:27;;;;;;;;;;;;;;;;;;5029064;28;19920;-78
2021/08/31 05:39:11;;;;;;;;;;;;;;;;;;5034159;28;19920;-77
2021/08/31 05:41:56;;;;;;;;;;;;;;;;;;5036151;28;19921;-77
2021/08/31 05:44:40;;;;;;;;;;;;;;;;;;5027690;28;19920;-77
2021/08/31 05:47:24;;;;;;;;;;;;;;;;;;5032680;28;19920;-79
2021/08/31 05:50:08;;;;;;;;;;;;;;;;;;5037766;28;19948;-78
2021/08/31 05:52:52;;;;;;;;;;;;;;;;;;5035281;28;19924;-79
2021/08/31 05:55:37;;;;;;;;;;;;;;;;;;5036115;28;19920;-79
2021/08/31 05:58:21;;;;;;;;;;;;;;;;;;5036134;28;19921;-78
2021/08/31 06:01:06;;;;;;;;;;;;;;;;;;5029288;28;19921;-79
2021/08/31 06:03:51;;;;;;;;;;;;;;;;;;5034801;28;19920;-78
2021/08/31 06:06:36;;;;;;;;;;;;;;;;;;5040441;28;19920;-79
2021/08/31 06:09:20;;;;;;;;;;;;;;;;;;5037960;28;19928;-79
2021/08/31 06:12:04;;;;;;;;;;;;;;;;;;5036432;28;19925;-79
2021/08/31 06:14:48;;;;;;;;;;;;;;;;;;5040480;28;19921;-80
2021/08/31 06:17:33;;;;;;;;;;;;;;;;;;5039586;28;19920;-79
2021/08/31 06:20:17;;;;;;;;;;;;;;;;;;5036309;28;19920;-79
2021/08/31 06:23:01;;;;;;;;;;;;;;;;;;5039813;28;19920;-79
2021/08/31 06:25:46;;;;;;;;;;;;;;;;;;5034382;28;19989;-78
2021/08/31 06:28:30;;;;;;;;;;;;;;;;;;5033975;28;19924;-78
2021/08/31 06:31:14;;;;;;;;;;;;;;;;;;5039059;28;19928;-78
2021/08/31 06:33:58;;;;;;;;;;;;;;;;;;5038245;28;19920;-79
2021/08/31 06:36:42;;;;;;;;;;;;;;;;;;5034007;28;19924;-78
2021/08/31 06:39:27;;;;;;;;;;;;;;;;;;5032799;28;20409;-79
2021/08/31 06:42:11;;;;;;;;;;;;;;;;;;5035540;28;20324;-78
2021/08/31 06:44:55;;;;;;;;;;;;;;;;;;5035187;28;19940;-78
2021/08/31 06:47:39;;;;;;;;;;;;;;;;;;5031394;28;20302;-79
2021/08/31 06:50:24;;;;;;;;;;;;;;;;;;5036648;28;19992;-78
2021/08/31 06:53:08;;;;;;;;;;;;;;;;;;5032581;28;19924;-78
2021/08/31 06:55:52;;;;;;;;;;;;;;;;;;5034227;28;19920;-79
2021/08/31 06:58:37;;;;;;;;;;;;;;;;;;5032171;28;19936;-77
2021/08/31 07:01:21;;;;;;;;;;;;;;;;;;5032036;28;20293;-77
2021/08/31 07:04:05;;;;;;;;;;;;;;;;;;5030770;28;20400;-77
2021/08/31 07:06:49;;;;;;;;;;;;;;;;;;5037031;28;20337;-77
2021/08/31 07:09:34;;;;;;;;;;;;;;;;;;5031228;28;19939;-78
2021/08/31 07:12:18;;;;;;;;;;;;;;;;;;5033961;28;20344;-78
2021/08/31 07:15:02;;;;;;;;;;;;;;;;;;5039944;28;19920;-80
2021/08/31 07:17:47;;;;;;;;;;;;;;;;;;5036690;28;19920;-78
2021/08/31 07:20:31;;;;;;;;;;;;;;;;;;5034056;28;19920;-78
2021/08/31 07:23:15;;;;;;;;;;;;;;;;;;5038085;28;19944;-78
2021/08/31 07:26:00;;;;;;;;;;;;;;;;;;5037017;28;19924;-78
2021/08/31 07:28:44;;;;;;;;;;;;;;;;;;5035584;28;20404;-78
2021/08/31 07:31:28;;;;;;;;;;;;;;;;;;5032765;28;19924;-78
2021/08/31 07:34:12;;;;;;;;;;;;;;;;;;5038611;28;19920;-80
2021/08/31 07:36:56;;;;;;;;;;;;;;;;;;5035862;28;19920;-77
2021/08/31 07:39:42;;;;;;;;;;;;;;;;;;5033621;28;20301;-78
2021/08/31 07:42:26;;;;;;;;;;;;;;;;;;5037230;28;20316;-77
2021/08/31 07:45:13;;;;;;;;;;;;;;;;;;5034507;28;19988;-79
2021/08/31 07:47:57;;;;;;;;;;;;;;;;;;5030910;28;19925;-77
2021/08/31 07:50:41;;;;;;;;;;;;;;;;;;5033220;28;19920;-77
2021/08/31 07:53:26;;;;;;;;;;;;;;;;;;5034064;28;19924;-77
2021/08/31 07:56:10;;;;;;;;;;;;;;;;;;5032107;28;19932;-77
2021/08/31 07:58:55;;;;;;;;;;;;;;;;;;5033043;28;19920;-77
2021/08/31 08:01:39;;;;;;;;;;;;;;;;;;5031992;28;20519;-77
2021/08/31 08:04:23;;;;;;;;;;;;;;;;;;5029795;28;19936;-77
2021/08/31 08:07:07;;;;;;;;;;;;;;;;;;5035328;28;20281;-77
2021/08/31 08:09:52;;;;;;;;;;;;;;;;;;5032589;28;19928;-77
2021/08/31 08:12:36;;;;;;;;;;;;;;;;;;5036928;28;19932;-77
2021/08/31 08:15:23;;;;;;;;;;;;;;;;;;5038856;28;20416;-77
2021/08/31 08:18:07;;;;;;;;;;;;;;;;;;5036191;28;19921;-77
2021/08/31 08:20:51;;;;;;;;;;;;;;;;;;5030516;28;19921;-77
2021/08/31 08:23:35;;;;;;;;;;;;;;;;;;5035872;28;19924;-77
2021/08/31 08:26:19;;;;;;;;;;;;;;;;;;5037970;28;19932;-77
2021/08/31 08:29:04;;;;;;;;;;;;;;;;;;5031189;28;20289;-76
2021/08/31 08:31:49;;;;;;;;;;;;;;;;;;5032258;28;19924;-77
2021/08/31 08:34:33;;;;;;;;;;;;;;;;;;5037513;28;19920;-77
2021/08/31 08:37:17;;;;;;;;;;;;;;;;;;5033626;28;19924;-77
2021/08/31 08:40:01;;;;;;;;;;;;;;;;;;5033487;28;19920;-77
2021/08/31 08:42:45;;;;;;;;;;;;;;;;;;5038361;28;20389;-78
2021/08/31 08:45:29;;;;;;;;;;;;;;;;;;5035882;28;19924;-78
2021/08/31 08:48:14;;;;;;;;;;;;;;;;;;5032973;28;19936;-78
2021/08/31 08:50:58;;;;;;;;;;;;;;;;;;5035598;28;19928;-78
2021/08/31 08:53:42;;;;;;;;;;;;;;;;;;5035096;28;19944;-78
2021/08/31 08:56:27;;;;;;;;;;;;;;;;;;5036320;28;19990;-78
2021/08/31 08:59:13;;;;;;;;;;;;;;;;;;5036031;28;19920;-78
2021/08/31 09:01:57;;;;;;;;;;;;;;;;;;5038004;28;19920;-78
2021/08/31 09:04:42;;;;;;;;;;;;;;;;;;5033444;28;19936;-77
2021/08/31 09:07:26;;;;;;;;;;;;;;;;;;5032002;28;20540;-77
2021/08/31 09:10:10;;;;;;;;;;;;;;;;;;5036285;28;19928;-77
2021/08/31 09:12:54;;;;;;;;;;;;;;;;;;5033968;28;19924;-77
2021/08/31 09:15:39;;;;;;;;;;;;;;;;;;5033144;28;19940;-77
2021/08/31 09:18:25;;;;;;;;;;;;;;;;;;5036386;28;19920;-78
2021/08/31 09:21:09;;;;;;;;;;;;;;;;;;5038463;28;19921;-77
2021/08/31 09:23:53;;;;;;;;;;;;;;;;;;5033592;28;19920;-77
2021/08/31 09:26:38;;;;;;;;;;;;;;;;;;5037336;28;20023;-77
2021/08/31 09:29:24;;;;;;;;;;;;;;;;;;5032045;28;19920;-77
2021/08/31 09:32:07;;;;;;;;;;;;;;;;;;5033517;28;19924;-77
2021/08/31 09:34:52;;;;;;;;;;;;;;;;;;5036418;28;19920;-77
2021/08/31 09:37:37;;;;;;;;;;;;;;;;;;5035281;28;19920;-77
2021/08/31 09:40:27;;;;;;;;;;;;;;;;;;5033952;28;19920;-77
2021/08/31 09:43:15;;;;;;;;;;;;;;;;;;5035958;28;19940;-77
2021/08/31 09:45:59;;;;;;;;;;;;;;;;;;5035287;28;19920;-77
2021/08/31 09:48:43;;;;;;;;;;;;;;;;;;5033498;28;19920;-78
2021/08/31 09:51:27;;;;;;;;;;;;;;;;;;5037519;28;19920;-77
2021/08/31 09:54:12;;;;;;;;;;;;;;;;;;5034289;28;19924;-77
2021/08/31 09:56:56;;;;;;;;;;;;;;;;;;5034055;28;19920;-77
2021/08/31 09:59:40;;;;;;;;;;;;;;;;;;5033318;28;20412;-77
2021/08/31 10:02:24;;;;;;;;;;;;;;;;;;5036800;28;20290;-79
2021/08/31 10:05:08;;;;;;;;;;;;;;;;;;5035386;28;19920;-78
2021/08/31 10:07:53;;;;;;;;;;;;;;;;;;5040420;28;20302;-79
2021/08/31 10:10:37;;;;;;;;;;;;;;;;;;5038764;28;19940;-78
2021/08/31 10:13:21;;;;;;;;;;;;;;;;;;5033065;28;20200;-79
2021/08/31 10:16:05;;;;;;;;;;;;;;;;;;5040736;28;19924;-79
2021/08/31 10:18:50;;;;;;;;;;;;;;;;;;5036530;28;20302;-78
2021/08/31 10:21:36;;;;;;;;;;;;;;;;;;5036501;28;19920;-79
2021/08/31 10:24:20;;;;;;;;;;;;;;;;;;5032329;28;19932;-78
2021/08/31 10:27:04;;;;;;;;;;;;;;;;;;5038793;28;19920;-78
2021/08/31 10:29:48;;;;;;;;;;;;;;;;;;5035724;28;20386;-82
2021/08/31 10:32:33;;;;;;;;;;;;;;;;;;5036773;28;19924;-82
2021/08/31 10:35:17;;;;;;;;;;;;;;;;;;5039107;28;20401;-81
2021/08/31 10:38:01;;;;;;;;;;;;;;;;;;5036484;28;19920;-82
2021/08/31 10:40:46;;;;;;;;;;;;;;;;;;5031618;28;19920;-80
2021/08/31 10:43:30;;;;;;;;;;;;;;;;;;5039635;28;20317;-80
2021/08/31 10:46:14;;;;;;;;;;;;;;;;;;5039360;28;19939;-79
2021/08/31 10:48:58;;;;;;;;;;;;;;;;;;5037154;28;20310;-79
2021/08/31 10:51:42;;;;;;;;;;;;;;;;;;5040280;28;19924;-79
2021/08/31 10:54:27;;;;;;;;;;;;;;;;;;5032986;28;19920;-77
2021/08/31 10:57:11;;;;;;;;;;;;;;;;;;5031933;28;20305;-77
2021/08/31 10:59:55;;;;;;;;;;;;;;;;;;5031424;28;19921;-77
2021/08/31 11:02:40;;;;;;;;;;;;;;;;;;5035470;28;20304;-77
2021/08/31 11:05:24;;;;;;;;;;;;;;;;;;5033014;28;19920;-79
2021/08/31 11:08:08;;;;;;;;;;;;;;;;;;5033264;28;19924;-78
2021/08/31 11:10:53;;;;;;;;;;;;;;;;;;5038408;28;19920;-77
2021/08/31 11:13:37;;;;;;;;;;;;;;;;;;5036101;28;20408;-78
2021/08/31 11:16:21;;;;;;;;;;;;;;;;;;5034073;28;19920;-78
2021/08/31 11:19:05;;;;;;;;;;;;;;;;;;5033224;28;20400;-78
2021/08/31 11:21:49;;;;;;;;;;;;;;;;;;5035247;28;19928;-79
2021/08/31 11:24:34;;;;;;;;;;;;;;;;;;5032985;28;19920;-78
2021/08/31 11:27:18;;;;;;;;;;;;;;;;;;5035659;28;20621;-78
2021/08/31 11:30:02;;;;;;;;;;;;;;;;;;5033948;28;19920;-77
2021/08/31 11:32:46;;;;;;;;;;;;;;;;;;5032257;28;19924;-77
2021/08/31 11:35:31;;;;;;;;;;;;;;;;;;5036032;28;20297;-77
2021/08/31 11:38:16;;;;;;;;;;;;;;;;;;5035372;28;20493;-78
2021/08/31 11:41:01;;;;;;;;;;;;;;;;;;5033547;28;19920;-78
2021/08/31 11:43:46;;;;;;;;;;;;;;;;;;5040372;28;19920;-78
2021/08/31 11:46:30;;;;;;;;;;;;;;;;;;5038133;28;19924;-78
2021/08/31 11:49:14;;;;;;;;;;;;;;;;;;5037689;28;19936;-78
2021/08/31 11:52:01;;;;;;;;;;;;;;;;;;5035366;28;19920;-78
2021/08/31 11:54:46;;;;;;;;;;;;;;;;;;5039153;28;19984;-78
2021/08/31 11:57:30;;;;;;;;;;;;;;;;;;5037924;28;19928;-78
2021/08/31 12:00:16;;;;;;;;;;;;;;;;;;5040257;28;19940;-78
2021/08/31 12:03:01;;;;;;;;;;;;;;;;;;5039115;28;19920;-78
2021/08/31 12:05:46;;;;;;;;;;;;;;;;;;5035905;28;19920;-78
2021/08/31 12:08:30;;;;;;;;;;;;;;;;;;5031178;28;19932;-78
2021/08/31 12:11:14;;;;;;;;;;;;;;;;;;5034341;28;19924;-78
2021/08/31 12:13:59;;;;;;;;;;;;;;;;;;5035562;28;19924;-77
2021/08/31 12:16:44;;;;;;;;;;;;;;;;;;5035378;28;19920;-77
2021/08/31 12:19:28;;;;;;;;;;;;;;;;;;5034648;28;19920;-77
2021/08/31 12:22:12;;;;;;;;;;;;;;;;;;5036746;28;19920;-77
2021/08/31 12:24:56;;;;;;;;;;;;;;;;;;5034531;28;19920;-77
2021/08/31 12:27:40;;;;;;;;;;;;;;;;;;5030354;28;19929;-77
2021/08/31 12:30:24;;;;;;;;;;;;;;;;;;5037118;28;19920;-78
2021/08/31 12:33:08;;;;;;;;;;;;;;;;;;5035744;28;19924;-78
2021/08/31 12:35:53;;;;;;;;;;;;;;;;;;5037939;28;19921;-78
2021/08/31 12:38:37;;;;;;;;;;;;;;;;;;5032325;28;19920;-78
2021/08/31 12:41:23;;;;;;;;;;;;;;;;;;5036942;28;19920;-77
2021/08/31 12:44:08;;;;;;;;;;;;;;;;;;5041158;28;19920;-78
2021/08/31 12:46:56;;;;;;;;;;;;;;;;;;5038173;28;19928;-77
2021/08/31 12:49:40;;;;;;;;;;;;;;;;;;5034897;28;19928;-77
2021/08/31 12:52:24;;;;;;;;;;;;;;;;;;5039963;28;19925;-78
2021/08/31 12:55:09;;;;;;;;;;;;;;;;;;5037057;28;19920;-79
2021/08/31 12:57:53;;;;;;;;;;;;;;;;;;5041431;28;19920;-78
2021/08/31 13:00:37;;;;;;;;;;;;;;;;;;5034858;28;19920;-78
2021/08/31 13:03:21;;;;;;;;;;;;;;;;;;5039853;28;19929;-78
2021/08/31 13:06:05;;;;;;;;;;;;;;;;;;5037102;28;19936;-78
2021/08/31 13:08:50;;;;;;;;;;;;;;;;;;5034360;28;19963;-78
2021/08/31 13:11:34;;;;;;;;;;;;;;;;;;5037732;28;20420;-79
2021/08/31 13:14:18;;;;;;;;;;;;;;;;;;5039734;28;19924;-78
2021/08/31 13:17:02;;;;;;;;;;;;;;;;;;5036425;28;19928;-79
2021/08/31 13:19:46;;;;;;;;;;;;;;;;;;5037504;28;19920;-79
2021/08/31 13:22:31;;;;;;;;;;;;;;;;;;5040951;28;19936;-80
2021/08/31 13:25:15;;;;;;;;;;;;;;;;;;5040157;28;19920;-79
2021/08/31 13:27:59;;;;;;;;;;;;;;;;;;5043970;28;19920;-79
2021/08/31 13:30:43;;;;;;;;;;;;;;;;;;5040792;28;19929;-81
2021/08/31 13:33:28;;;;;;;;;;;;;;;;;;5038974;28;19924;-80
2021/08/31 13:36:12;;;;;;;;;;;;;;;;;;5042284;28;20285;-79
2021/08/31 13:38:56;;;;;;;;;;;;;;;;;;5038956;28;19935;-80
2021/08/31 13:41:42;;;;;;;;;;;;;;;;;;5038266;28;19925;-79
2021/08/31 13:44:26;;;;;;;;;;;;;;;;;;5041432;28;19924;-81
2021/08/31 13:47:11;;;;;;;;;;;;;;;;;;5040193;28;19986;-79
2021/08/31 13:49:55;;;;;;;;;;;;;;;;;;5036586;28;19920;-80
2021/08/31 13:52:40;;;;;;;;;;;;;;;;;;5034881;28;19927;-78
2021/08/31 13:55:24;;;;;;;;;;;;;;;;;;5038635;28;19920;-79
2021/08/31 13:58:12;;;;;;;;;;;;;;;;;;5035053;28;20301;-79
2021/08/31 14:00:56;;;;;;;;;;;;;;;;;;5036228;28;19921;-78
2021/08/31 14:03:43;;;;;;;;;;;;;;;;;;5039587;28;19920;-82
2021/08/31 14:06:27;;;;;;;;;;;;;;;;;;5032740;28;19920;-80
2021/08/31 14:09:11;;;;;;;;;;;;;;;;;;5034167;28;19924;-81
2021/08/31 14:11:56;;;;;;;;;;;;;;;;;;5035341;28;20400;-77
2021/08/31 14:14:41;;;;;;;;;;;;;;;;;;5034568;28;20408;-78
2021/08/31 14:17:26;;;;;;;;;;;;;;;;;;5033467;28;19920;-78
2021/08/31 14:20:10;;;;;;;;;;;;;;;;;;5035533;28;19924;-77
2021/08/31 14:22:55;;;;;;;;;;;;;;;;;;5035528;28;19920;-77
2021/08/31 14:25:39;;;;;;;;;;;;;;;;;;5032663;28;19936;-78
2021/08/31 14:28:23;;;;;;;;;;;;;;;;;;5036551;28;19928;-77
2021/08/31 14:31:08;;;;;;;;;;;;;;;;;;5032766;28;20297;-77
2021/08/31 14:33:52;;;;;;;;;;;;;;;;;;5033509;28;20420;-77
2021/08/31 14:36:36;;;;;;;;;;;;;;;;;;5037615;28;19920;-77
2021/08/31 14:39:21;;;;;;;;;;;;;;;;;;5033926;28;19928;-77
2021/08/31 14:42:05;;;;;;;;;;;;;;;;;;5033799;28;19920;-77
2021/08/31 14:44:49;;;;;;;;;;;;;;;;;;5026170;28;19924;-77
2021/08/31 14:47:33;;;;;;;;;;;;;;;;;;5024075;28;19924;-77
2021/08/31 14:50:18;;;;;;;;;;;;;;;;;;5022788;28;19936;-77
2021/08/31 14:53:02;;;;;;;;;;;;;;;;;;5025744;28;19932;-77
2021/08/31 14:55:46;;;;;;;;;;;;;;;;;;5035824;28;20293;-77
2021/08/31 14:58:30;;;;;;;;;;;;;;;;;;5034025;28;19924;-77
2021/08/31 15:01:15;;;;;;;;;;;;;;;;;;5032256;28;19920;-77
2021/08/31 15:04:00;;;;;;;;;;;;;;;;;;5033746;28;19935;-77
2021/08/31 15:06:44;;;;;;;;;;;;;;;;;;5033452;28;19920;-77
2021/08/31 15:09:28;;;;;;;;;;;;;;;;;;5032005;28;19929;-76
2021/08/31 15:12:12;;;;;;;;;;;;;;;;;;5034397;28;19920;-77
2021/08/31 15:14:56;;;;;;;;;;;;;;;;;;5034071;28;20301;-77
2021/08/31 15:17:41;;;;;;;;;;;;;;;;;;5035105;28;19924;-76
2021/08/31 15:20:26;;;;;;;;;;;;;;;;;;5041097;28;20014;-77
2021/08/31 15:23:10;;;;;;;;;;;;;;;;;;5036880;28;19924;-76
2021/08/31 15:25:54;;;;;;;;;;;;;;;;;;5035255;28;19921;-76
2021/08/31 15:28:38;;;;;;;;;;;;;;;;;;5039172;28;19929;-77
2021/08/31 15:31:23;;;;;;;;;;;;;;;;;;5038093;28;19936;-77
2021/08/31 15:34:09;;;;;;;;;;;;;;;;;;5036322;28;19924;-77
2021/08/31 15:36:53;;;;;;;;;;;;;;;;;;5041144;28;19920;-76
2021/08/31 15:39:38;;;;;;;;;;;;;;;;;;5031893;28;20408;-76
2021/08/31 15:42:22;;;;;;;;;;;;;;;;;;5036631;28;19920;-76
2021/08/31 15:45:08;;;;;;;;;;;;;;;;;;5034209;28;19920;-76
2021/08/31 15:47:52;;;;;;;;;;;;;;;;;;5036992;28;19920;-76
2021/08/31 15:50:36;;;;;;;;;;;;;;;;;;5033827;28;19920;-76
2021/08/31 15:53:20;;;;;;;;;;;;;;;;;;5035689;28;19928;-76
2021/08/31 15:56:04;;;;;;;;;;;;;;;;;;5031898;28;19944;-77
2021/08/31 15:58:49;;;;;;;;;;;;;;;;;;5034392;28;19920;-77
2021/08/31 16:01:33;;;;;;;;;;;;;;;;;;5036006;28;20427;-76
2021/08/31 16:04:17;;;;;;;;;;;;;;;;;;5039198;28;19963;-77
2021/08/31 16:07:02;;;;;;;;;;;;;;;;;;5036384;28;19920;-77
2021/08/31 16:09:48;;;;;;;;;;;;;;;;;;5034975;28;19924;-76
2021/08/31 16:12:32;;;;;;;;;;;;;;;;;;5037622;28;20401;-76
2021/08/31 16:15:16;;;;;;;;;;;;;;;;;;5038395;28;19920;-76
2021/08/31 16:18:00;;;;;;;;;;;;;;;;;;5032607;28;19920;-76
2021/08/31 16:20:44;;;;;;;;;;;;;;;;;;5036462;28;19924;-76
2021/08/31 16:23:28;;;;;;;;;;;;;;;;;;5035900;28;19920;-76
2021/08/31 16:26:13;;;;;;;;;;;;;;;;;;5034093;28;19936;-76
2021/08/31 16:28:57;;;;;;;;;;;;;;;;;;5035333;28;20294;-76
2021/08/31 16:31:41;;;;;;;;;;;;;;;;;;5038276;28;19920;-76
2021/08/31 16:34:25;;;;;;;;;;;;;;;;;;5036558;28;19932;-76
2021/08/31 16:37:10;;;;;;;;;;;;;;;;;;5032707;28;19920;-76
2021/08/31 16:39:54;;;;;;;;;;;;;;;;;;5034288;28;19920;-76
2021/08/31 16:42:38;;;;;;;;;;;;;;;;;;5036924;28;19928;-76
2021/08/31 16:45:22;;;;;;;;;;;;;;;;;;5032335;28;19936;-77
2021/08/31 16:48:06;;;;;;;;;;;;;;;;;;5032606;28;19920;-76
2021/08/31 16:50:50;;;;;;;;;;;;;;;;;;5030968;28;19932;-76
2021/08/31 16:53:35;;;;;;;;;;;;;;;;;;5030904;28;19936;-76
2021/08/31 16:56:19;;;;;;;;;;;;;;;;;;5032777;28;19920;-76
2021/08/31 16:59:03;;;;;;;;;;;;;;;;;;5030645;28;19920;-76
2021/08/31 17:01:48;;;;;;;;;;;;;;;;;;5034470;28;20309;-76
2021/08/31 17:04:32;;;;;;;;;;;;;;;;;;5035751;28;19942;-76
2021/08/31 17:07:16;;;;;;;;;;;;;;;;;;5034020;28;19920;-76
2021/08/31 17:10:00;;;;;;;;;;;;;;;;;;5038085;28;19928;-76
2021/08/31 17:12:45;;;;;;;;;;;;;;;;;;5036081;28;20541;-76
2021/08/31 17:15:29;;;;;;;;;;;;;;;;;;5031523;28;19920;-76
2021/08/31 17:18:15;;;;;;;;;;;;;;;;;;5032973;28;19920;-76
2021/08/31 17:20:59;;;;;;;;;;;;;;;;;;5032281;28;19928;-77
2021/08/31 17:23:48;;;;;;;;;;;;;;;;;;5032442;28;19920;-76
2021/08/31 17:26:32;;;;;;;;;;;;;;;;;;5034787;28;19921;-76
2021/08/31 17:29:17;;;;;;;;;;;;;;;;;;5026720;28;19920;-76
2021/08/31 17:32:01;;;;;;;;;;;;;;;;;;5038346;28;19940;-76
2021/08/31 17:34:45;;;;;;;;;;;;;;;;;;5034494;28;19932;-76
2021/08/31 17:37:29;;;;;;;;;;;;;;;;;;5033076;28;19920;-76
2021/08/31 17:40:14;;;;;;;;;;;;;;;;;;5033570;28;19927;-76
2021/08/31 17:42:58;;;;;;;;;;;;;;;;;;5028302;28;19920;-76
2021/08/31 17:45:42;;;;;;;;;;;;;;;;;;5033507;28;19924;-76
2021/08/31 17:48:27;;;;;;;;;;;;;;;;;;5036346;28;19984;-77
2021/08/31 17:51:14;;;;;;;;;;;;;;;;;;5036172;28;19940;-76
2021/08/31 17:53:58;;;;;;;;;;;;;;;;;;5033908;28;19925;-76
2021/08/31 17:56:43;;;;;;;;;;;;;;;;;;5036772;28;20392;-76
2021/08/31 17:59:27;;;;;;;;;;;;;;;;;;5034063;28;19936;-76
2021/08/31 18:02:12;;;;;;;;;;;;;;;;;;5036213;28;19925;-76
2021/08/31 18:04:56;;;;;;;;;;;;;;;;;;5034794;28;19920;-77
2021/08/31 18:07:41;;;;;;;;;;;;;;;;;;5031223;28;20501;-76
2021/08/31 18:10:25;;;;;;;;;;;;;;;;;;5033502;28;19924;-76
2021/08/31 18:13:09;;;;;;;;;;;;;;;;;;5031585;28;19928;-76
2021/08/31 18:15:53;;;;;;;;;;;;;;;;;;5035842;28;20293;-76
2021/08/31 18:18:37;;;;;;;;;;;;;;;;;;5033074;28;19920;-76
2021/08/31 18:21:22;;;;;;;;;;;;;;;;;;5028850;28;20286;-76
2021/08/31 18:24:06;;;;;;;;;;;;;;;;;;5035922;28;20619;-76
2021/08/31 18:26:50;;;;;;;;;;;;;;;;;;5034792;28;19924;-76
2021/08/31 18:29:34;;;;;;;;;;;;;;;;;;5028887;28;19936;-76
2021/08/31 18:32:19;;;;;;;;;;;;;;;;;;5031846;28;20320;-76
2021/08/31 18:35:03;;;;;;;;;;;;;;;;;;5036270;28;20400;-76
2021/08/31 18:37:47;;;;;;;;;;;;;;;;;;5027328;28;19920;-76
2021/08/31 18:40:32;;;;;;;;;;;;;;;;;;5030607;28;20476;-76
2021/08/31 18:43:16;;;;;;;;;;;;;;;;;;5032883;28;20301;-76